createdAt,value
2022-10-19T00:01:53.164Z,3.85
2022-10-19T00:04:19.684Z,4.00
2022-10-19T00:06:46.450Z,3.40
2022-10-19T00:09:17.534Z,3.05
2022-10-19T00:11:45.452Z,4.07
2022-10-19T00:14:14.128Z,4.00
2022-10-19T00:16:40.887Z,3.72
2022-10-19T00:19:09.292Z,4.10
2022-10-19T00:21:35.871Z,3.53
2022-10-19T00:24:02.128Z,4.00
2022-10-19T00:26:28.378Z,4.00
2022-10-19T00:28:55.211Z,3.45
2022-10-19T00:31:22.037Z,3.38
2022-10-19T00:33:48.299Z,4.50
2022-10-19T00:36:15.654Z,4.07
2022-10-19T00:38:42.108Z,3.40
2022-10-19T00:41:08.505Z,3.45
2022-10-19T00:43:55.446Z,3.70
2022-10-19T00:46:22.031Z,3.72
2022-10-19T00:51:14.915Z,3.15
2022-10-19T00:53:41.452Z,2.90
2022-10-19T00:56:09.610Z,3.00
2022-10-19T00:58:36.000Z,3.38
2022-10-19T01:01:04.057Z,3.33
2022-10-19T01:03:30.368Z,3.40
2022-10-19T01:05:56.981Z,2.95
2022-10-19T01:08:23.259Z,3.17
2022-10-19T01:11:14.215Z,2.78
2022-10-19T01:13:50.192Z,2.63
2022-10-19T01:16:21.866Z,2.67
2022-10-19T01:18:58.582Z,2.75
2022-10-19T01:21:26.240Z,3.20
2022-10-19T01:24:01.504Z,2.85
2022-10-19T01:26:27.685Z,2.65
2022-10-19T01:29:13.007Z,2.20
2022-10-19T01:31:42.131Z,2.67
2022-10-19T01:34:11.358Z,2.50
2022-10-19T01:36:46.794Z,2.40
2022-10-19T01:39:18.969Z,3.40
2022-10-19T01:41:54.624Z,2.60
2022-10-19T01:44:39.233Z,2.00
2022-10-19T01:47:07.697Z,1.83
2022-10-19T01:49:55.555Z,1.85
2022-10-19T01:52:23.003Z,1.90
2022-10-19T01:54:51.528Z,1.90
2022-10-19T01:57:23.899Z,2.53
2022-10-19T01:59:51.610Z,2.28
2022-10-19T02:02:18.409Z,2.55
2022-10-19T02:04:45.664Z,2.40
2022-10-19T02:07:12.372Z,2.15
2022-10-19T02:09:38.621Z,2.00
2022-10-19T02:12:09.074Z,1.90
2022-10-19T02:14:39.480Z,1.92
2022-10-19T02:17:07.304Z,2.25
2022-10-19T02:19:33.603Z,2.75
2022-10-19T02:21:59.831Z,2.75
2022-10-19T02:24:26.090Z,2.70
2022-10-19T02:26:52.353Z,2.60
2022-10-19T02:29:18.842Z,2.70
2022-10-19T02:31:45.509Z,2.67
2022-10-19T02:34:12.313Z,2.75
2022-10-19T02:36:38.522Z,2.70
2022-10-19T02:39:06.320Z,2.85
2022-10-19T02:41:42.300Z,2.95
2022-10-19T02:44:20.434Z,2.95
2022-10-19T02:47:01.877Z,3.13
2022-10-19T02:49:29.145Z,2.33
2022-10-19T02:52:07.537Z,2.25
2022-10-19T02:54:34.007Z,2.13
2022-10-19T02:57:00.240Z,2.28
2022-10-19T02:59:26.620Z,2.30
2022-10-19T03:01:52.925Z,2.38
2022-10-19T03:04:19.209Z,3.00
2022-10-19T03:06:45.632Z,2.65
2022-10-19T03:09:11.908Z,2.17
2022-10-19T03:11:38.680Z,2.58
2022-10-19T03:14:04.886Z,2.50
2022-10-19T03:16:31.175Z,2.58
2022-10-19T03:18:57.385Z,2.60
2022-10-19T03:21:23.598Z,3.10
2022-10-19T03:23:49.894Z,2.80
2022-10-19T03:26:16.998Z,3.08
2022-10-19T03:28:43.386Z,3.03
2022-10-19T03:31:09.753Z,3.20
2022-10-19T03:33:36.008Z,2.90
2022-10-19T03:36:17.567Z,3.20
2022-10-19T03:38:44.428Z,3.97
2022-10-19T03:41:11.123Z,3.80
2022-10-19T03:43:37.334Z,4.00
2022-10-19T03:46:03.637Z,3.60
2022-10-19T03:48:29.903Z,3.80
2022-10-19T03:51:00.163Z,3.38
2022-10-19T03:53:26.535Z,3.47
2022-10-19T03:55:52.759Z,3.95
2022-10-19T03:58:19.027Z,3.78
2022-10-19T04:00:45.429Z,3.78
2022-10-19T04:03:11.688Z,3.10
2022-10-19T04:05:37.914Z,3.40
2022-10-19T04:08:04.240Z,3.85
2022-10-19T04:10:31.158Z,3.17
2022-10-19T04:12:57.357Z,3.00
2022-10-19T04:15:23.560Z,3.20
2022-10-19T04:17:49.772Z,3.65
2022-10-19T04:20:15.983Z,4.47
2022-10-19T04:22:42.191Z,4.80
2022-10-19T04:25:09.372Z,3.30
2022-10-19T04:27:35.879Z,2.63
2022-10-19T04:30:02.336Z,2.35
2022-10-19T04:32:28.555Z,2.53
2022-10-19T04:34:54.867Z,2.42
2022-10-19T04:37:21.087Z,2.60
2022-10-19T04:39:47.307Z,2.70
2022-10-19T04:42:13.524Z,2.70
2022-10-19T04:44:39.816Z,2.92
2022-10-19T04:47:06.029Z,2.47
2022-10-19T04:49:32.256Z,2.60
2022-10-19T04:51:58.671Z,2.60
2022-10-19T04:54:24.945Z,2.42
2022-10-19T04:56:51.278Z,2.70
2022-10-19T04:59:17.508Z,3.65
2022-10-19T05:01:46.336Z,3.05
2022-10-19T05:04:13.749Z,2.85
2022-10-19T05:06:39.975Z,3.42
2022-10-19T05:09:06.437Z,3.00
2022-10-19T05:11:32.676Z,3.10
2022-10-19T05:13:58.930Z,2.85
2022-10-19T05:16:25.781Z,3.10
2022-10-19T05:18:53.529Z,3.40
2022-10-19T05:21:21.684Z,2.78
2022-10-19T05:23:50.696Z,3.00
2022-10-19T05:26:18.175Z,2.70
2022-10-19T05:28:48.225Z,3.42
2022-10-19T05:31:18.331Z,3.40
2022-10-19T05:33:44.934Z,3.13
2022-10-19T05:36:15.439Z,3.13
2022-10-19T05:38:42.563Z,3.33
2022-10-19T05:41:08.786Z,3.78
2022-10-19T05:43:35.070Z,3.22
2022-10-19T05:46:04.918Z,3.55
2022-10-19T05:48:33.680Z,3.20
2022-10-19T05:51:01.188Z,3.30
2022-10-19T05:53:28.142Z,3.10
2022-10-19T05:55:54.448Z,3.03
2022-10-19T05:58:21.082Z,3.20
2022-10-19T06:00:51.267Z,4.10
2022-10-19T06:03:17.655Z,3.53
2022-10-19T06:05:43.966Z,3.53
2022-10-19T06:08:10.192Z,3.08
2022-10-19T06:10:36.404Z,3.00
2022-10-19T06:13:02.758Z,3.00
2022-10-19T06:15:28.961Z,2.75
2022-10-19T06:17:55.216Z,3.00
2022-10-19T06:20:21.453Z,3.17
2022-10-19T06:22:47.718Z,3.00
2022-10-19T06:25:17.973Z,3.20
2022-10-19T06:27:47.295Z,3.03
2022-10-19T06:30:13.674Z,3.03
2022-10-19T06:32:39.927Z,3.00
2022-10-19T06:35:06.415Z,3.25
2022-10-19T06:37:32.834Z,3.30
2022-10-19T06:40:02.373Z,3.45
2022-10-19T06:42:31.066Z,3.10
2022-10-19T06:44:57.305Z,3.40
2022-10-19T06:47:23.592Z,3.28
2022-10-19T06:49:49.822Z,3.20
2022-10-19T06:52:16.042Z,3.38
2022-10-19T06:54:42.420Z,3.25
2022-10-19T06:57:08.670Z,3.15
2022-10-19T06:59:34.879Z,3.00
2022-10-19T07:02:01.116Z,2.83
2022-10-19T07:04:27.420Z,3.70
2022-10-19T07:06:53.678Z,3.50
2022-10-19T07:09:20.039Z,3.90
2022-10-19T07:11:46.418Z,3.35
2022-10-19T07:14:12.682Z,3.40
2022-10-19T07:16:38.916Z,3.55
2022-10-19T07:19:05.179Z,3.92
2022-10-19T07:21:31.403Z,3.60
2022-10-19T07:23:57.827Z,2.97
2022-10-19T07:26:27.039Z,3.47
2022-10-19T07:28:55.145Z,3.78
2022-10-19T07:31:22.097Z,3.50
2022-10-19T07:33:58.733Z,3.25
2022-10-19T07:36:25.371Z,3.58
2022-10-19T07:38:51.663Z,3.72
2022-10-19T07:41:19.147Z,3.20
2022-10-19T07:43:46.281Z,3.80
2022-10-19T07:46:22.381Z,3.80
2022-10-19T07:48:48.667Z,3.47
2022-10-19T07:51:15.603Z,4.15
2022-10-19T07:53:42.290Z,3.80
2022-10-19T07:56:10.030Z,4.18
2022-10-19T07:58:36.763Z,4.13
2022-10-19T08:01:04.412Z,3.70
2022-10-19T08:04:31.249Z,3.97
2022-10-19T08:06:18.905Z,3.85
2022-10-19T08:08:46.424Z,3.58
2022-10-19T08:11:14.730Z,3.95
2022-10-19T08:13:40.982Z,4.40
2022-10-19T08:16:19.903Z,4.25
2022-10-19T08:18:46.380Z,4.18
2022-10-19T08:21:12.587Z,4.32
2022-10-19T08:23:38.816Z,4.25
2022-10-19T08:26:05.153Z,4.47
2022-10-19T08:28:31.364Z,4.30
2022-10-19T08:30:58.922Z,4.55
2022-10-19T08:33:25.831Z,4.82
2022-10-19T08:35:53.921Z,4.57
2022-10-19T08:38:23.532Z,4.55
2022-10-19T08:40:49.811Z,4.30
2022-10-19T08:43:16.003Z,4.85
2022-10-19T08:45:44.337Z,4.22
2022-10-19T08:48:10.936Z,4.80
2022-10-19T08:50:38.834Z,4.18
2022-10-19T08:53:07.034Z,3.83
2022-10-19T08:55:44.312Z,4.30
2022-10-19T08:58:20.228Z,3.95
2022-10-19T09:00:50.175Z,4.43
2022-10-19T09:03:27.168Z,4.30
2022-10-19T09:06:14.679Z,4.60
2022-10-19T09:08:41.082Z,4.20
2022-10-19T09:11:09.644Z,4.47
2022-10-19T09:14:03.721Z,4.45
2022-10-19T09:16:28.194Z,4.40
2022-10-19T09:21:30.921Z,3.60
2022-10-19T09:24:05.459Z,4.10
2022-10-19T09:26:34.136Z,3.97
2022-10-19T09:29:00.396Z,4.28
2022-10-19T09:31:31.714Z,3.83
2022-10-19T09:34:03.241Z,3.55
2022-10-19T09:36:50.484Z,3.20
2022-10-19T09:39:17.550Z,2.92
2022-10-19T09:41:51.072Z,3.08
2022-10-19T09:44:17.796Z,3.13
2022-10-19T09:47:04.295Z,3.08
2022-10-19T09:49:47.127Z,2.70
2022-10-19T09:52:35.611Z,2.40
2022-10-19T09:55:03.271Z,2.35
2022-10-19T09:57:30.209Z,2.10
2022-10-19T09:59:56.665Z,1.95
2022-10-19T10:02:30.789Z,2.00
2022-10-19T10:05:04.353Z,1.75
2022-10-19T10:07:34.132Z,2.00
2022-10-19T10:10:00.765Z,1.40
2022-10-19T10:12:27.076Z,1.30
2022-10-19T10:14:53.931Z,1.30
2022-10-19T10:17:28.095Z,1.17
2022-10-19T10:20:00.159Z,1.10
2022-10-19T10:22:27.568Z,0.90
2022-10-19T10:24:54.371Z,1.10
2022-10-19T10:27:29.971Z,1.40
2022-10-19T10:32:28.551Z,1.05
2022-10-19T10:35:06.103Z,1.00
2022-10-19T10:37:38.773Z,1.23
2022-10-19T10:40:05.964Z,1.10
2022-10-19T10:42:42.812Z,0.95
2022-10-19T10:45:27.910Z,1.00
2022-10-19T10:47:54.230Z,0.95
2022-10-19T10:50:40.779Z,0.95
2022-10-19T10:53:27.019Z,1.15
2022-10-19T10:55:56.540Z,1.38
2022-10-19T10:58:43.187Z,1.58
2022-10-19T11:01:16.015Z,1.05
2022-10-19T11:03:45.184Z,1.65
2022-10-19T11:06:11.936Z,1.45
2022-10-19T11:08:49.158Z,1.50
2022-10-19T11:11:22.031Z,1.40
2022-10-19T11:13:48.231Z,1.08
2022-10-19T11:16:35.069Z,1.92
2022-10-19T11:19:01.265Z,1.35
2022-10-19T11:21:30.469Z,1.30
2022-10-19T11:24:05.927Z,1.15
2022-10-19T11:26:55.198Z,1.02
2022-10-19T11:29:40.299Z,1.10
2022-10-19T11:32:12.844Z,1.40
2022-10-19T11:34:41.882Z,1.40
2022-10-19T11:37:27.109Z,1.58
2022-10-19T11:40:02.405Z,1.02
2022-10-19T11:42:38.410Z,1.33
2022-10-19T11:45:23.441Z,0.90
2022-10-19T11:47:53.733Z,1.30
2022-10-19T11:50:24.301Z,1.10
2022-10-19T11:53:01.383Z,1.33
2022-10-19T11:55:36.834Z,1.40
2022-10-19T11:58:12.472Z,1.17
2022-10-19T12:00:45.533Z,1.67
2022-10-19T12:03:30.353Z,1.80
2022-10-19T12:06:03.334Z,1.60
2022-10-19T12:08:32.410Z,1.52
2022-10-19T12:11:01.393Z,1.55
2022-10-19T12:13:39.765Z,1.30
2022-10-19T12:16:06.946Z,1.35
2022-10-19T12:18:39.023Z,2.08
2022-10-19T12:21:25.839Z,1.40
2022-10-19T12:23:53.096Z,1.38
2022-10-19T12:26:21.000Z,1.40
2022-10-19T12:28:52.129Z,1.25
2022-10-19T12:31:18.630Z,1.50
2022-10-19T12:33:47.800Z,1.52
2022-10-19T12:36:31.926Z,1.42
2022-10-19T12:39:01.196Z,2.00
2022-10-19T12:41:33.568Z,1.60
2022-10-19T12:44:15.240Z,1.75
2022-10-19T12:46:45.241Z,1.40
2022-10-19T12:49:31.840Z,1.50
2022-10-19T12:51:58.854Z,1.60
2022-10-19T12:54:26.549Z,1.50
2022-10-19T12:56:54.049Z,1.50
2022-10-19T12:59:33.755Z,1.65
2022-10-19T13:02:01.099Z,1.30
2022-10-19T13:04:28.980Z,1.90
2022-10-19T13:06:57.956Z,1.65
2022-10-19T13:09:26.831Z,1.58
2022-10-19T13:12:11.967Z,1.60
2022-10-19T13:14:45.912Z,2.20
2022-10-19T13:17:34.113Z,1.25
2022-10-19T13:20:13.057Z,1.65
2022-10-19T13:22:39.433Z,1.80
2022-10-19T13:25:14.748Z,1.48
2022-10-19T13:27:41.024Z,1.40
2022-10-19T13:30:27.379Z,1.30
2022-10-19T13:32:53.660Z,1.58
2022-10-19T13:35:29.295Z,1.48
2022-10-19T13:38:14.424Z,1.20
2022-10-19T13:40:55.778Z,1.25
2022-10-19T13:43:26.638Z,1.20
2022-10-19T13:45:58.977Z,1.25
2022-10-19T13:48:31.283Z,1.20
2022-10-19T13:51:02.511Z,1.17
2022-10-19T13:53:45.659Z,1.00
2022-10-19T13:56:11.877Z,1.52
2022-10-19T13:59:02.291Z,1.33
2022-10-19T14:01:31.637Z,1.40
2022-10-19T14:04:12.704Z,1.23
2022-10-19T14:06:42.806Z,1.00
2022-10-19T14:09:27.625Z,2.00
2022-10-19T14:11:54.491Z,1.20
2022-10-19T14:14:22.183Z,0.88
2022-10-19T14:16:48.417Z,1.02
2022-10-19T14:19:19.358Z,1.00
2022-10-19T14:21:45.587Z,1.75
2022-10-19T14:24:40.943Z,1.08
2022-10-19T14:27:07.884Z,1.10
2022-10-19T14:29:45.498Z,0.98
2022-10-19T14:32:12.107Z,1.60
2022-10-19T14:34:46.136Z,0.95
2022-10-19T14:37:15.971Z,1.13
2022-10-19T14:39:42.224Z,1.30
2022-10-19T14:42:11.351Z,1.00
2022-10-19T14:44:39.695Z,1.30
2022-10-19T14:47:17.397Z,1.08
2022-10-19T14:49:43.805Z,0.85
2022-10-19T14:52:12.223Z,1.15
2022-10-19T14:54:41.584Z,1.30
2022-10-19T14:57:24.781Z,0.90
2022-10-19T14:59:52.821Z,0.90
2022-10-19T15:02:39.503Z,1.02
2022-10-19T15:05:13.799Z,1.25
2022-10-19T15:07:41.523Z,1.10
2022-10-19T15:10:19.879Z,1.00
2022-10-19T15:12:46.356Z,1.30
2022-10-19T15:15:17.625Z,1.00
2022-10-19T15:17:54.353Z,1.10
2022-10-19T15:20:49.299Z,0.70
2022-10-19T15:23:33.743Z,1.15
2022-10-19T15:26:00.740Z,0.90
2022-10-19T15:28:37.460Z,1.02
2022-10-19T15:31:14.425Z,1.10
2022-10-19T15:33:43.551Z,1.00
2022-10-19T15:36:17.332Z,0.90
2022-10-19T15:39:11.260Z,1.15
2022-10-19T15:41:45.205Z,1.23
2022-10-19T15:44:29.975Z,1.00
2022-10-19T15:47:00.628Z,1.27
2022-10-19T15:51:52.989Z,1.60
2022-10-19T15:54:19.262Z,1.33
2022-10-19T15:56:46.731Z,1.30
2022-10-19T15:59:17.290Z,1.30
2022-10-19T16:01:44.077Z,1.20
2022-10-19T16:04:10.495Z,1.38
2022-10-19T16:06:38.139Z,1.30
2022-10-19T16:09:04.814Z,1.35
2022-10-19T16:11:31.528Z,1.60
2022-10-19T16:13:57.791Z,1.60
2022-10-19T16:16:25.595Z,1.50
2022-10-19T16:18:52.587Z,1.60
2022-10-19T16:21:19.689Z,2.15
2022-10-19T16:23:45.933Z,2.00
2022-10-19T16:26:13.885Z,1.85
2022-10-19T16:28:40.384Z,2.00
2022-10-19T16:31:06.639Z,1.80
2022-10-19T16:33:33.353Z,2.00
2022-10-19T16:35:59.664Z,2.10
2022-10-19T16:38:25.884Z,1.95
2022-10-19T16:40:52.118Z,2.53
2022-10-19T16:43:18.321Z,2.78
2022-10-19T16:45:44.666Z,2.13
2022-10-19T16:48:13.728Z,2.15
2022-10-19T16:50:39.983Z,2.40
2022-10-19T16:53:12.964Z,2.60
2022-10-19T16:55:40.480Z,2.63
2022-10-19T16:58:07.020Z,2.70
2022-10-19T17:00:33.688Z,2.85
2022-10-19T17:02:59.947Z,2.58
2022-10-19T17:05:26.255Z,2.60
2022-10-19T17:07:52.528Z,2.28
2022-10-19T17:10:18.755Z,2.40
2022-10-19T17:12:45.099Z,2.63
2022-10-19T17:15:37.503Z,2.60
2022-10-19T17:17:57.951Z,2.90
2022-10-19T17:20:24.177Z,2.92
2022-10-19T17:22:51.852Z,3.08
2022-10-19T17:25:18.089Z,3.17
2022-10-19T17:27:44.369Z,2.85
2022-10-19T17:30:10.758Z,3.50
2022-10-19T17:32:37.303Z,3.53
2022-10-19T17:35:03.862Z,4.07
2022-10-19T17:37:30.743Z,4.07
2022-10-19T17:39:56.968Z,4.20
2022-10-19T17:42:23.191Z,4.28
2022-10-19T17:44:49.406Z,3.88
2022-10-19T17:47:15.630Z,3.42
2022-10-19T17:49:41.863Z,3.90
2022-10-19T17:52:08.067Z,4.22
2022-10-19T17:54:43.476Z,4.28
2022-10-19T17:57:20.560Z,3.97
2022-10-19T17:59:52.581Z,3.97
2022-10-19T18:02:19.323Z,3.78
2022-10-19T18:04:45.547Z,3.80
2022-10-19T18:07:11.772Z,3.97
2022-10-19T18:09:38.030Z,3.47
2022-10-19T18:12:06.465Z,3.70
2022-10-19T18:14:33.448Z,3.10
2022-10-19T18:17:01.850Z,3.20
2022-10-19T18:19:28.075Z,3.55
2022-10-19T18:21:54.300Z,3.47
2022-10-19T18:24:21.377Z,3.53
2022-10-19T18:26:48.822Z,3.00
2022-10-19T18:29:16.223Z,3.22
2022-10-19T18:31:42.549Z,3.50
2022-10-19T18:34:12.187Z,2.78
2022-10-19T18:36:38.480Z,3.17
2022-10-19T18:39:05.140Z,3.03
2022-10-19T18:41:31.380Z,3.25
2022-10-19T18:43:58.712Z,3.00
2022-10-19T18:46:25.755Z,2.80
2022-10-19T18:48:52.407Z,2.75
2022-10-19T18:51:18.876Z,2.65
2022-10-19T18:53:45.458Z,3.47
2022-10-19T18:56:13.027Z,3.33
2022-10-19T18:58:39.337Z,2.80
2022-10-19T19:01:05.641Z,3.10
2022-10-19T19:03:31.908Z,2.67
2022-10-19T19:05:58.903Z,2.72
2022-10-19T19:08:25.196Z,3.03
2022-10-19T19:10:51.568Z,3.35
2022-10-19T19:13:17.795Z,3.05
2022-10-19T19:15:44.008Z,2.72
2022-10-19T19:18:10.336Z,3.58
2022-10-19T19:20:39.952Z,2.88
2022-10-19T19:23:06.271Z,2.95
2022-10-19T19:25:32.478Z,2.90
2022-10-19T19:27:58.748Z,2.88
2022-10-19T19:30:25.019Z,3.10
2022-10-19T19:32:51.292Z,2.72
2022-10-19T19:35:17.540Z,2.97
2022-10-19T19:37:43.761Z,2.95
2022-10-19T19:40:10.206Z,3.53
2022-10-19T19:42:36.426Z,3.10
2022-10-19T19:45:02.758Z,2.80
2022-10-19T19:47:28.961Z,3.10
2022-10-19T19:49:55.195Z,2.83
2022-10-19T19:52:21.392Z,2.90
2022-10-19T19:54:47.648Z,3.20
2022-10-19T19:57:13.914Z,2.67
2022-10-19T19:59:40.128Z,2.97
2022-10-19T20:02:06.859Z,3.35
2022-10-19T20:04:33.199Z,2.70
2022-10-19T20:06:59.419Z,3.35
2022-10-19T20:09:26.406Z,2.97
2022-10-19T20:11:52.617Z,2.75
2022-10-19T20:14:19.774Z,3.20
2022-10-19T20:16:45.983Z,3.35
2022-10-19T20:19:13.247Z,3.35
2022-10-19T20:21:39.750Z,3.20
2022-10-19T20:24:06.347Z,3.80
2022-10-19T20:26:32.729Z,3.28
2022-10-19T20:28:59.191Z,3.30
2022-10-19T20:31:25.544Z,3.38
2022-10-19T20:33:51.873Z,2.95
2022-10-19T20:36:22.682Z,2.90
2022-10-19T20:41:15.396Z,3.28
2022-10-19T20:43:41.644Z,3.40
2022-10-19T20:46:10.440Z,3.33
2022-10-19T20:48:36.693Z,3.75
2022-10-19T20:51:10.147Z,3.40
2022-10-19T20:53:36.404Z,3.30
2022-10-19T20:56:06.413Z,3.10
2022-10-19T20:58:32.896Z,3.20
2022-10-19T21:01:06.674Z,3.00
2022-10-19T21:03:32.995Z,3.20
2022-10-19T21:06:01.635Z,2.92
2022-10-19T21:08:27.872Z,3.30
2022-10-19T21:10:54.127Z,3.00
2022-10-19T21:13:20.347Z,3.13
2022-10-19T21:15:46.668Z,3.22
2022-10-19T21:18:12.874Z,3.50
2022-10-19T21:20:39.128Z,3.90
2022-10-19T21:23:05.342Z,4.50
2022-10-19T21:25:31.587Z,5.38
2022-10-19T21:27:57.844Z,5.97
2022-10-19T21:30:24.103Z,4.88
2022-10-19T21:32:50.306Z,3.55
2022-10-19T21:35:16.562Z,3.35
2022-10-19T21:37:42.806Z,3.10
2022-10-19T21:40:09.200Z,3.53
2022-10-19T21:42:35.442Z,3.30
2022-10-19T21:45:25.328Z,3.50
2022-10-19T21:47:47.939Z,3.20
2022-10-19T21:50:14.232Z,3.53
2022-10-19T21:52:40.452Z,3.92
2022-10-19T21:55:06.915Z,3.25
2022-10-19T21:57:33.509Z,3.35
2022-10-19T22:00:00.017Z,3.05
2022-10-19T22:02:26.227Z,3.83
2022-10-19T22:04:52.438Z,3.08
2022-10-19T22:07:18.674Z,3.17
2022-10-19T22:09:45.078Z,2.97
2022-10-19T22:12:11.332Z,3.38
2022-10-19T22:14:37.574Z,3.15
2022-10-19T22:17:03.798Z,3.63
2022-10-19T22:19:30.044Z,3.40
2022-10-19T22:21:56.268Z,3.33
2022-10-19T22:24:22.491Z,3.22
2022-10-19T22:26:50.603Z,3.10
2022-10-19T22:29:17.034Z,3.10
2022-10-19T22:31:43.578Z,3.25
2022-10-19T22:34:11.510Z,3.03
2022-10-19T22:36:38.096Z,3.45
2022-10-19T22:39:04.711Z,3.15
2022-10-19T22:42:04.825Z,3.60
2022-10-19T22:44:31.448Z,3.17
2022-10-19T22:46:58.247Z,3.30
2022-10-19T22:49:24.487Z,3.20
2022-10-19T22:51:50.711Z,3.30
2022-10-19T22:54:17.001Z,3.30
2022-10-19T22:56:43.510Z,3.40
2022-10-19T22:59:09.809Z,3.63
2022-10-19T23:01:36.323Z,3.45
2022-10-19T23:04:02.969Z,3.30
2022-10-19T23:06:29.239Z,3.20
2022-10-19T23:08:55.546Z,3.67
2022-10-19T23:11:21.812Z,3.38
2022-10-19T23:13:48.732Z,3.63
2022-10-19T23:16:14.999Z,3.60
2022-10-19T23:18:41.322Z,3.70
2022-10-19T23:21:09.089Z,4.47
2022-10-19T23:23:36.820Z,3.65
2022-10-19T23:26:04.606Z,3.80
2022-10-19T23:28:31.372Z,3.63
2022-10-19T23:30:58.681Z,3.65
2022-10-19T23:33:25.828Z,4.00
2022-10-19T23:35:52.086Z,3.40
2022-10-19T23:38:18.363Z,3.70
2022-10-19T23:40:44.880Z,4.07
2022-10-19T23:43:11.637Z,3.72
2022-10-19T23:45:39.030Z,3.75
2022-10-19T23:48:05.301Z,4.22
2022-10-19T23:50:31.515Z,3.92
2022-10-19T23:52:57.732Z,3.97
2022-10-19T23:55:23.962Z,3.70
2022-10-19T23:57:50.172Z,3.88
